Time;durP1;ratioP1;P1;durP2;ratioP2;P2;SDS_P1;SDS_P2;PMS_P1;PMS_P2;Temp;Humidity;BMP_temperature;BMP_pressure;BME280_temperature;BME280_humidity;BME280_pressure;Samples;Min_cycle;Max_cycle;Signal;HPM_P1;HPM_P2
2023/05/28 00:02:24;;;;;;;;;;;;;;;12.23;100.00;96036.78;5060524;28;19978;-75
2023/05/28 00:04:50;;;;;;;;;;;;;;;12.07;100.00;96032.56;5052721;28;19974;-75
2023/05/28 00:07:16;;;;;;;;;;;;;;;11.99;100.00;96029.66;5057473;28;19948;-75
2023/05/28 00:09:43;;;;;;;;;;;;;;;11.96;100.00;96031.59;5041954;28;19929;-75
2023/05/28 00:12:12;;;;;;;;;;;;;;;11.93;100.00;96024.84;5057746;28;20333;-75
2023/05/28 00:14:38;;;;;;;;;;;;;;;11.94;100.00;96029.13;5050255;28;19949;-75
2023/05/28 00:17:04;;;;;;;;;;;;;;;11.90;100.00;96022.44;5053009;28;19925;-75
2023/05/28 00:19:30;;;;;;;;;;;;;;;11.91;100.00;96015.50;5062215;28;19989;-75
2023/05/28 00:21:57;;;;;;;;;;;;;;;11.94;100.00;96015.28;5041152;28;19925;-75
2023/05/28 00:24:23;;;;;;;;;;;;;;;12.03;100.00;96017.31;5060623;28;19939;-75
2023/05/28 00:26:49;;;;;;;;;;;;;;;12.12;100.00;96016.69;5048488;28;20392;-75
2023/05/28 00:29:17;;;;;;;;;;;;;;;12.11;100.00;96005.47;5063253;28;19928;-75
2023/05/28 00:31:43;;;;;;;;;;;;;;;12.14;100.00;96012.25;5048698;28;20384;-75
2023/05/28 00:34:10;;;;;;;;;;;;;;;12.07;100.00;96011.81;5064360;28;19924;-75
2023/05/28 00:36:36;;;;;;;;;;;;;;;11.99;100.00;96011.47;5055370;28;19935;-75
2023/05/28 00:39:04;;;;;;;;;;;;;;;11.95;100.00;96010.00;5055722;28;20004;-75
2023/05/28 00:41:31;;;;;;;;;;;;;;;11.76;100.00;96015.50;5056472;28;19962;-75
2023/05/28 00:43:57;;;;;;;;;;;;;;;11.66;100.00;96006.66;5053697;28;19932;-75
2023/05/28 00:46:25;;;;;;;;;;;;;;;11.59;100.00;96007.97;5053479;28;19925;-75
2023/05/28 00:48:51;;;;;;;;;;;;;;;11.52;100.00;96004.91;5044533;28;19925;-75
2023/05/28 00:51:18;;;;;;;;;;;;;;;11.53;100.00;96006.59;5044731;28;19970;-75
2023/05/28 00:53:44;;;;;;;;;;;;;;;11.50;100.00;96006.78;5061651;28;19931;-75
2023/05/28 00:56:11;;;;;;;;;;;;;;;11.52;100.00;96006.69;5053957;28;19933;-75
2023/05/28 00:58:39;;;;;;;;;;;;;;;11.36;100.00;96009.41;5043625;28;19932;-75
2023/05/28 01:01:06;;;;;;;;;;;;;;;11.27;100.00;96010.81;5060721;28;20020;-75
2023/05/28 01:03:37;;;;;;;;;;;;;;;11.26;100.00;96009.13;5061454;28;19931;-75
2023/05/28 01:06:06;;;;;;;;;;;;;;;11.33;100.00;96009.59;5054038;28;20280;-75
2023/05/28 01:08:32;;;;;;;;;;;;;;;11.33;100.00;96004.41;5046459;28;20016;-75
2023/05/28 01:10:59;;;;;;;;;;;;;;;11.29;100.00;96005.53;5046387;28;19933;-75
2023/05/28 01:13:25;;;;;;;;;;;;;;;11.23;100.00;95993.75;5063304;28;19928;-75
2023/05/28 01:15:51;;;;;;;;;;;;;;;11.23;100.00;96000.69;5048415;28;19924;-75
2023/05/28 01:18:18;;;;;;;;;;;;;;;11.29;100.00;96001.16;5057487;28;19932;-75
2023/05/28 01:20:46;;;;;;;;;;;;;;;11.32;100.00;96003.56;5046223;28;19926;-75
2023/05/28 01:23:13;;;;;;;;;;;;;;;11.34;100.00;96001.69;5046200;28;19939;-75
2023/05/28 01:25:41;;;;;;;;;;;;;;;11.33;100.00;95999.22;5052186;28;19948;-75
2023/05/28 01:28:16;;;;;;;;;;;;;;;11.17;100.00;95999.34;5054431;28;19925;-75
2023/05/28 01:30:43;;;;;;;;;;;;;;;11.11;100.00;95997.09;5050503;28;19979;-75
2023/05/28 01:33:10;;;;;;;;;;;;;;;11.04;100.00;95996.66;5047553;28;19932;-75
2023/05/28 01:35:37;;;;;;;;;;;;;;;11.01;100.00;95988.22;5052857;28;19924;-76
2023/05/28 01:38:04;;;;;;;;;;;;;;;10.88;100.00;95991.56;5060039;28;19931;-75
2023/05/28 01:40:32;;;;;;;;;;;;;;;10.91;100.00;95993.16;5051428;28;19970;-75
2023/05/28 01:43:00;;;;;;;;;;;;;;;10.87;100.00;95989.09;5048292;28;20379;-75
2023/05/28 01:45:27;;;;;;;;;;;;;;;10.80;100.00;95986.03;5044109;28;20358;-75
2023/05/28 01:47:54;;;;;;;;;;;;;;;10.81;100.00;95990.28;5053083;28;19925;-75
2023/05/28 01:50:20;;;;;;;;;;;;;;;10.78;100.00;95981.84;5066533;28;19958;-75
2023/05/28 01:52:46;;;;;;;;;;;;;;;10.63;100.00;95979.25;5049747;28;19925;-75
2023/05/28 01:55:14;;;;;;;;;;;;;;;10.53;100.00;95977.28;5054785;28;19970;-75
2023/05/28 01:57:40;;;;;;;;;;;;;;;10.46;100.00;95979.44;5053245;28;19931;-75
2023/05/28 02:00:10;;;;;;;;;;;;;;;10.46;100.00;95976.00;5062766;28;19929;-75
2023/05/28 02:02:36;;;;;;;;;;;;;;;10.60;100.00;95987.19;5055633;28;19975;-75
2023/05/28 02:05:03;;;;;;;;;;;;;;;10.43;100.00;95976.19;5056009;28;19928;-75
2023/05/28 02:07:29;;;;;;;;;;;;;;;10.46;100.00;95974.25;5053381;28;20310;-75
2023/05/28 02:09:56;;;;;;;;;;;;;;;10.49;100.00;95968.88;5047525;28;19932;-75
2023/05/28 02:12:22;;;;;;;;;;;;;;;10.53;100.00;95975.56;5060754;28;19928;-75
2023/05/28 02:14:48;;;;;;;;;;;;;;;10.50;100.00;95965.38;5047843;28;19955;-75
2023/05/28 02:17:17;;;;;;;;;;;;;;;10.58;100.00;95963.16;5053123;28;19924;-75
2023/05/28 02:19:43;;;;;;;;;;;;;;;10.59;100.00;95961.41;5050261;28;19925;-75
2023/05/28 02:22:11;;;;;;;;;;;;;;;10.62;100.00;95959.47;5040269;28;20387;-75
2023/05/28 02:24:37;;;;;;;;;;;;;;;10.63;100.00;95952.50;5048878;28;19984;-75
2023/05/28 02:27:05;;;;;;;;;;;;;;;10.62;100.00;95956.88;5051742;28;19924;-75
2023/05/28 02:29:31;;;;;;;;;;;;;;;10.49;100.00;95957.69;5059653;28;19928;-75
2023/05/28 02:31:57;;;;;;;;;;;;;;;10.44;100.00;95957.97;5045335;28;19925;-75
2023/05/28 02:34:25;;;;;;;;;;;;;;;10.38;100.00;95947.97;5057133;28;19928;-75
2023/05/28 02:36:52;;;;;;;;;;;;;;;10.39;100.00;95958.25;5046646;28;20449;-75
2023/05/28 02:39:19;;;;;;;;;;;;;;;10.34;100.00;95949.91;5060362;28;19924;-75
2023/05/28 02:41:45;;;;;;;;;;;;;;;10.33;100.00;95943.06;5047959;28;20024;-75
2023/05/28 02:44:11;;;;;;;;;;;;;;;10.34;100.00;95946.47;5055201;28;21215;-75
2023/05/28 02:46:38;;;;;;;;;;;;;;;10.25;100.00;95949.59;5052723;28;20674;-75
2023/05/28 02:49:04;;;;;;;;;;;;;;;10.11;100.00;95958.97;5056294;28;20006;-75
2023/05/28 02:51:32;;;;;;;;;;;;;;;9.87;100.00;95961.22;5057289;28;19928;-75
2023/05/28 02:53:58;;;;;;;;;;;;;;;9.85;100.00;95957.06;5050770;28;19925;-75
2023/05/28 02:56:24;;;;;;;;;;;;;;;9.83;100.00;95961.50;5063969;28;20382;-75
2023/05/28 02:58:51;;;;;;;;;;;;;;;9.79;100.00;95959.97;5059760;28;19928;-75
2023/05/28 03:01:17;;;;;;;;;;;;;;;9.82;100.00;95955.47;5045169;28;19925;-75
2023/05/28 03:03:43;;;;;;;;;;;;;;;9.87;100.00;95957.81;5056898;28;20046;-75
2023/05/28 03:06:10;;;;;;;;;;;;;;;9.88;100.00;95960.31;5046544;28;19972;-75
2023/05/28 03:08:38;;;;;;;;;;;;;;;9.78;100.00;95966.91;5060259;28;20411;-75
2023/05/28 03:11:04;;;;;;;;;;;;;;;9.80;100.00;95972.84;5043463;28;19929;-75
2023/05/28 03:13:30;;;;;;;;;;;;;;;9.74;100.00;95975.75;5061808;28;19932;-76
2023/05/28 03:15:58;;;;;;;;;;;;;;;9.74;100.00;95975.75;5048859;28;19928;-75
2023/05/28 03:18:24;;;;;;;;;;;;;;;9.76;100.00;95978.28;5064489;28;19932;-75
2023/05/28 03:20:51;;;;;;;;;;;;;;;9.86;100.00;95977.69;5048147;28;19932;-74
2023/05/28 03:23:18;;;;;;;;;;;;;;;9.85;100.00;95975.16;5043923;28;19974;-74
2023/05/28 03:25:45;;;;;;;;;;;;;;;9.87;100.00;95976.75;5053599;28;19925;-74
2023/05/28 03:28:11;;;;;;;;;;;;;;;9.94;100.00;95975.47;5053456;28;20007;-75
2023/05/28 03:30:38;;;;;;;;;;;;;;;9.92;100.00;95971.31;5046817;28;19929;-75
2023/05/28 03:33:04;;;;;;;;;;;;;;;10.00;100.00;95968.28;5042940;28;20398;-76
2023/05/28 03:35:30;;;;;;;;;;;;;;;9.94;100.00;95965.13;5051649;28;19959;-75
2023/05/28 03:37:57;;;;;;;;;;;;;;;9.55;100.00;95977.72;5056986;28;19970;-75
2023/05/28 03:40:23;;;;;;;;;;;;;;;9.54;100.00;95973.47;5055669;28;20496;-75
2023/05/28 03:42:50;;;;;;;;;;;;;;;9.53;100.00;95979.53;5053344;28;19932;-74
2023/05/28 03:45:17;;;;;;;;;;;;;;;9.57;100.00;95974.13;5049449;28;19928;-75
2023/05/28 03:47:43;;;;;;;;;;;;;;;9.52;100.00;95973.53;5051960;28;19967;-75
2023/05/28 03:50:10;;;;;;;;;;;;;;;9.50;100.00;95970.22;5067201;28;19931;-75
2023/05/28 03:52:36;;;;;;;;;;;;;;;9.45;100.00;95970.47;5056151;28;19932;-75
2023/05/28 03:55:03;;;;;;;;;;;;;;;9.43;100.00;95972.31;5054427;28;19936;-75
2023/05/28 03:57:29;;;;;;;;;;;;;;;9.46;100.00;95973.91;5048865;28;19929;-75
2023/05/28 03:59:57;;;;;;;;;;;;;;;9.30;100.00;95976.47;5059826;28;19928;-75
2023/05/28 04:02:24;;;;;;;;;;;;;;;9.24;100.00;95981.16;5042663;28;19928;-75
2023/05/28 04:04:50;;;;;;;;;;;;;;;9.27;100.00;95979.25;5050869;28;19967;-75
2023/05/28 04:07:16;;;;;;;;;;;;;;;9.35;100.00;95984.00;5057822;28;19936;-75
2023/05/28 04:09:42;;;;;;;;;;;;;;;9.42;100.00;95987.91;5049087;28;19939;-75
2023/05/28 04:12:10;;;;;;;;;;;;;;;9.42;100.00;95980.97;5052022;28;19978;-75
2023/05/28 04:14:37;;;;;;;;;;;;;;;9.44;100.00;95986.06;5059174;28;20092;-74
2023/05/28 04:17:05;;;;;;;;;;;;;;;9.45;100.00;95980.81;5058542;28;19929;-75
2023/05/28 04:19:31;;;;;;;;;;;;;;;9.60;100.00;95983.44;5057718;28;19936;-75
2023/05/28 04:21:57;;;;;;;;;;;;;;;9.50;100.00;95980.56;5059437;28;19970;-75
2023/05/28 04:24:23;;;;;;;;;;;;;;;9.62;100.00;95986.81;5060935;28;19928;-75
2023/05/28 04:26:51;;;;;;;;;;;;;;;9.59;100.00;95981.78;5046103;28;19932;-75
2023/05/28 04:29:17;;;;;;;;;;;;;;;9.55;100.00;95985.47;5062939;28;19930;-75
2023/05/28 04:31:43;;;;;;;;;;;;;;;9.60;100.00;95980.88;5042567;28;19933;-75
2023/05/28 04:34:11;;;;;;;;;;;;;;;9.68;100.00;95983.88;5064923;28;19947;-75
2023/05/28 04:36:37;;;;;;;;;;;;;;;9.81;100.00;95989.19;5054188;28;20370;-75
2023/05/28 04:39:04;;;;;;;;;;;;;;;9.94;100.00;95980.66;5055783;28;19995;-75
2023/05/28 04:41:30;;;;;;;;;;;;;;;10.09;100.00;95984.13;5053785;28;20027;-75
2023/05/28 04:43:57;;;;;;;;;;;;;;;10.18;100.00;95987.94;5056228;28;19925;-75
2023/05/28 04:46:25;;;;;;;;;;;;;;;10.32;100.00;95985.41;5061720;28;19954;-75
2023/05/28 04:48:51;;;;;;;;;;;;;;;10.38;100.00;95987.66;5063149;28;19929;-75
2023/05/28 04:51:20;;;;;;;;;;;;;;;10.53;100.00;95987.66;5063712;28;20439;-75
2023/05/28 04:53:47;;;;;;;;;;;;;;;10.68;100.00;95991.94;5054013;28;19925;-75
2023/05/28 04:56:13;;;;;;;;;;;;;;;10.82;100.00;95993.69;5059122;28;19932;-75
2023/05/28 04:58:39;;;;;;;;;;;;;;;10.89;100.00;95995.00;5054780;28;19979;-75
2023/05/28 05:01:07;;;;;;;;;;;;;;;11.07;100.00;95993.03;5061863;28;19975;-75
2023/05/28 05:03:33;;;;;;;;;;;;;;;11.21;100.00;95989.63;5055871;28;19982;-75
2023/05/28 05:06:00;;;;;;;;;;;;;;;11.23;100.00;95996.34;5056713;28;19925;-75
2023/05/28 05:08:28;;;;;;;;;;;;;;;11.33;100.00;95997.44;5060700;28;19993;-75
2023/05/28 05:10:54;;;;;;;;;;;;;;;11.41;100.00;95991.78;5045709;28;20024;-75
2023/05/28 05:13:20;;;;;;;;;;;;;;;11.54;100.00;95989.28;5061870;28;20684;-75
2023/05/28 05:15:47;;;;;;;;;;;;;;;11.69;100.00;95985.69;5049329;28;20373;-75
2023/05/28 05:18:13;;;;;;;;;;;;;;;11.69;100.00;95980.50;5062172;28;20438;-76
2023/05/28 05:20:39;;;;;;;;;;;;;;;11.71;100.00;95990.78;5048846;28;19924;-75
2023/05/28 05:23:05;;;;;;;;;;;;;;;11.74;100.00;95983.63;5062962;28;19991;-75
2023/05/28 05:25:33;;;;;;;;;;;;;;;11.80;100.00;95988.44;5052783;28;19929;-75
2023/05/28 05:27:59;;;;;;;;;;;;;;;11.92;100.00;95980.81;5047170;28;19924;-75
2023/05/28 05:30:25;;;;;;;;;;;;;;;12.04;100.00;95982.63;5055053;28;19929;-75
2023/05/28 05:32:52;;;;;;;;;;;;;;;12.17;100.00;95978.31;5051808;28;19928;-75
2023/05/28 05:35:19;;;;;;;;;;;;;;;12.22;100.00;95973.63;5046548;28;19933;-75
2023/05/28 05:37:46;;;;;;;;;;;;;;;12.45;100.00;95972.09;5039642;28;19952;-75
2023/05/28 05:40:12;;;;;;;;;;;;;;;12.56;100.00;95973.97;5039301;28;19925;-75
2023/05/28 05:42:40;;;;;;;;;;;;;;;12.68;100.00;95967.97;5045921;28;19937;-75
2023/05/28 05:45:07;;;;;;;;;;;;;;;12.73;100.00;95967.66;5054841;28;19936;-75
2023/05/28 05:47:33;;;;;;;;;;;;;;;12.91;100.00;95975.97;5054761;28;19935;-74
2023/05/28 05:49:59;;;;;;;;;;;;;;;13.01;100.00;95979.56;5058693;28;19935;-74
2023/05/28 05:52:26;;;;;;;;;;;;;;;13.06;100.00;95980.09;5049372;28;20388;-75
2023/05/28 05:54:52;;;;;;;;;;;;;;;13.36;100.00;95987.56;5052813;28;19925;-75
2023/05/28 05:57:18;;;;;;;;;;;;;;;13.45;100.00;95983.47;5057096;28;19950;-75
2023/05/28 05:59:46;;;;;;;;;;;;;;;13.60;100.00;95978.94;5047770;28;20442;-75
2023/05/28 06:02:12;;;;;;;;;;;;;;;13.94;100.00;95985.13;5045741;28;19925;-75
2023/05/28 06:04:38;;;;;;;;;;;;;;;14.04;100.00;95979.16;5052785;28;20099;-75
2023/05/28 06:07:06;;;;;;;;;;;;;;;14.12;100.00;95978.59;5057193;28;19924;-75
2023/05/28 06:09:32;;;;;;;;;;;;;;;14.27;100.00;95982.66;5045769;28;19932;-75
2023/05/28 06:11:59;;;;;;;;;;;;;;;14.42;100.00;95979.88;5048424;28;19986;-75
2023/05/28 06:14:25;;;;;;;;;;;;;;;14.66;100.00;95978.06;5051699;28;19933;-75
2023/05/28 06:16:53;;;;;;;;;;;;;;;14.82;100.00;95984.72;5053297;28;19931;-75
2023/05/28 06:19:19;;;;;;;;;;;;;;;14.94;100.00;95984.63;5050594;28;20382;-75
2023/05/28 06:21:45;;;;;;;;;;;;;;;15.25;100.00;95984.84;5054092;28;19936;-75
2023/05/28 06:24:12;;;;;;;;;;;;;;;15.47;100.00;95976.19;5055531;28;19952;-75
2023/05/28 06:26:38;;;;;;;;;;;;;;;15.56;100.00;95987.66;5048677;28;20418;-75
2023/05/28 06:29:06;;;;;;;;;;;;;;;15.61;100.00;95980.28;5046678;28;19933;-75
2023/05/28 06:31:32;;;;;;;;;;;;;;;15.83;99.64;95982.88;5041519;28;20376;-75
2023/05/28 06:33:59;;;;;;;;;;;;;;;15.98;86.18;95980.81;5048326;28;20272;-75
2023/05/28 06:36:26;;;;;;;;;;;;;;;16.18;75.05;95982.63;5050827;28;19932;-75
2023/05/28 06:38:52;;;;;;;;;;;;;;;16.48;77.29;95983.69;5059864;28;19931;-75
2023/05/28 06:41:18;;;;;;;;;;;;;;;16.67;72.67;95983.81;5057122;28;19978;-75
2023/05/28 06:43:46;;;;;;;;;;;;;;;16.65;81.79;95982.28;5049265;28;20383;-75
2023/05/28 06:46:12;;;;;;;;;;;;;;;16.51;82.49;95986.03;5054539;28;19929;-75
2023/05/28 06:48:38;;;;;;;;;;;;;;;16.37;86.09;95992.41;5045676;28;19933;-75
2023/05/28 06:51:06;;;;;;;;;;;;;;;16.19;86.32;95984.28;5047056;28;19929;-75
2023/05/28 06:53:32;;;;;;;;;;;;;;;16.12;84.94;95988.34;5045747;28;19993;-76
2023/05/28 06:55:58;;;;;;;;;;;;;;;16.17;79.63;95991.44;5053296;28;20370;-75
2023/05/28 06:58:25;;;;;;;;;;;;;;;16.13;75.78;95997.88;5049148;28;20023;-75
2023/05/28 07:00:51;;;;;;;;;;;;;;;16.38;74.54;95990.63;5046211;28;19983;-75
2023/05/28 07:03:17;;;;;;;;;;;;;;;16.60;73.24;95987.06;5054934;28;19928;-76
2023/05/28 07:05:43;;;;;;;;;;;;;;;16.86;71.19;95992.75;5045176;28;19925;-75
2023/05/28 07:08:12;;;;;;;;;;;;;;;16.82;72.05;95986.94;5041668;28;19925;-78
2023/05/28 07:10:38;;;;;;;;;;;;;;;16.66;69.38;95986.56;5047339;28;19933;-75
2023/05/28 07:13:05;;;;;;;;;;;;;;;16.78;68.14;95993.41;5053703;28;19983;-74
2023/05/28 07:15:31;;;;;;;;;;;;;;;16.76;68.38;95989.25;5050484;28;19982;-75
2023/05/28 07:17:57;;;;;;;;;;;;;;;16.92;67.85;95992.25;5059329;28;20346;-75
2023/05/28 07:20:23;;;;;;;;;;;;;;;17.50;66.67;95996.88;5061117;28;19925;-75
2023/05/28 07:22:50;;;;;;;;;;;;;;;17.64;66.94;95989.47;5049122;28;19928;-75
2023/05/28 07:25:17;;;;;;;;;;;;;;;17.87;64.81;95997.13;5056524;28;19935;-74
2023/05/28 07:27:43;;;;;;;;;;;;;;;17.83;62.40;95993.94;5038344;28;19925;-75
2023/05/28 07:30:10;;;;;;;;;;;;;;;18.07;62.74;95996.19;5056672;28;19929;-75
2023/05/28 07:32:37;;;;;;;;;;;;;;;18.38;61.83;95989.00;5048818;28;19978;-75
2023/05/28 07:35:04;;;;;;;;;;;;;;;18.78;59.95;95992.47;5054580;28;20033;-75
2023/05/28 07:37:32;;;;;;;;;;;;;;;18.80;59.23;95990.50;5053529;28;19929;-75
2023/05/28 07:39:58;;;;;;;;;;;;;;;19.27;57.74;95988.72;5055213;28;19925;-75
2023/05/28 07:42:25;;;;;;;;;;;;;;;19.64;58.55;95989.69;5054243;28;19928;-75
2023/05/28 07:44:52;;;;;;;;;;;;;;;19.57;53.91;95990.22;5051760;28;19925;-75
2023/05/28 07:47:18;;;;;;;;;;;;;;;19.48;54.75;95991.13;5057805;28;19924;-75
2023/05/28 07:49:44;;;;;;;;;;;;;;;19.87;56.86;95990.91;5054480;28;20349;-75
2023/05/28 07:52:11;;;;;;;;;;;;;;;19.89;58.93;95990.78;5054168;28;19929;-75
2023/05/28 07:54:39;;;;;;;;;;;;;;;20.39;58.97;95988.44;5053756;28;19928;-75
2023/05/28 07:57:05;;;;;;;;;;;;;;;20.79;62.77;95990.59;5063010;28;19928;-75
2023/05/28 07:59:33;;;;;;;;;;;;;;;20.95;62.54;95991.69;5053172;28;19931;-75
2023/05/28 08:02:00;;;;;;;;;;;;;;;20.59;53.19;95983.91;5050166;28;19925;-75
2023/05/28 08:04:26;;;;;;;;;;;;;;;20.19;52.41;95993.06;5055085;28;20015;-75
2023/05/28 08:06:52;;;;;;;;;;;;;;;20.82;63.99;95984.22;5059800;28;19928;-75
2023/05/28 08:09:20;;;;;;;;;;;;;;;21.12;53.55;95987.38;5046811;28;19932;-75
2023/05/28 08:11:46;;;;;;;;;;;;;;;20.82;50.59;95986.03;5057444;28;19947;-75
2023/05/28 08:14:13;;;;;;;;;;;;;;;21.24;60.26;95989.56;5055185;28;19936;-76
2023/05/28 08:16:41;;;;;;;;;;;;;;;21.55;60.34;95985.63;5052365;28;19932;-76
2023/05/28 08:19:07;;;;;;;;;;;;;;;21.57;51.90;95981.84;5063661;28;19925;-76
2023/05/28 08:21:34;;;;;;;;;;;;;;;21.66;50.89;95980.06;5057069;28;19928;-76
2023/05/28 08:24:00;;;;;;;;;;;;;;;21.65;48.03;95978.41;5061771;28;19947;-76
2023/05/28 08:26:27;;;;;;;;;;;;;;;21.93;54.55;95982.44;5046187;28;20350;-76
2023/05/28 08:28:53;;;;;;;;;;;;;;;22.06;49.93;95987.25;5060132;28;19924;-76
2023/05/28 08:31:20;;;;;;;;;;;;;;;22.14;47.35;95981.22;5054829;28;19931;-76
2023/05/28 08:33:48;;;;;;;;;;;;;;;22.15;53.06;95975.75;5061423;28;20386;-76
2023/05/28 08:36:14;;;;;;;;;;;;;;;21.74;49.96;95978.28;5056867;28;19932;-76
2023/05/28 08:38:40;;;;;;;;;;;;;;;21.64;49.31;95974.13;5058547;28;19935;-75
2023/05/28 08:41:08;;;;;;;;;;;;;;;21.50;52.47;95972.91;5060926;28;19924;-76
2023/05/28 08:43:34;;;;;;;;;;;;;;;21.73;47.13;95975.81;5056034;28;19929;-76
2023/05/28 08:46:00;;;;;;;;;;;;;;;22.03;48.92;95961.22;5052536;28;19929;-76
2023/05/28 08:48:29;;;;;;;;;;;;;;;21.83;51.82;95976.47;5049091;28;19929;-75
2023/05/28 08:50:56;;;;;;;;;;;;;;;21.49;51.24;95966.81;5051522;28;20479;-75
2023/05/28 08:53:25;;;;;;;;;;;;;;;21.38;52.94;95958.38;5061955;28;19925;-75
2023/05/28 08:55:52;;;;;;;;;;;;;;;21.62;50.72;95955.84;5059088;28;20375;-76
2023/05/28 08:58:19;;;;;;;;;;;;;;;21.75;54.10;95958.84;5043563;28;19932;-77
2023/05/28 09:00:45;;;;;;;;;;;;;;;21.77;46.49;95960.47;5063382;28;19979;-76
2023/05/28 09:03:11;;;;;;;;;;;;;;;21.79;46.58;95951.44;5060234;28;19967;-76
2023/05/28 09:05:38;;;;;;;;;;;;;;;21.82;47.25;95958.19;5066806;28;19958;-76
2023/05/28 09:08:07;;;;;;;;;;;;;;;22.09;57.88;95959.72;5061360;28;19950;-77
2023/05/28 09:10:33;;;;;;;;;;;;;;;22.10;49.70;95962.22;5053011;28;19957;-77
2023/05/28 09:13:00;;;;;;;;;;;;;;;22.27;48.40;95951.69;5059149;28;20287;-77
2023/05/28 09:15:26;;;;;;;;;;;;;;;22.39;55.63;95956.47;5058190;28;19974;-77
2023/05/28 09:17:53;;;;;;;;;;;;;;;22.56;53.76;95953.84;5060784;28;19925;-77
2023/05/28 09:20:19;;;;;;;;;;;;;;;22.48;44.83;95946.75;5058554;28;19924;-77
2023/05/28 09:22:46;;;;;;;;;;;;;;;22.54;47.22;95954.00;5058570;28;19929;-76
2023/05/28 09:25:14;;;;;;;;;;;;;;;22.38;48.47;95948.72;5058608;28;19975;-77
2023/05/28 09:27:44;;;;;;;;;;;;;;;22.48;50.77;95943.31;5041091;28;20443;-78
2023/05/28 09:30:11;;;;;;;;;;;;;;;22.44;48.65;95941.00;5068309;28;19935;-77
2023/05/28 09:32:38;;;;;;;;;;;;;;;22.71;51.63;95945.09;5042011;28;20016;-77
2023/05/28 09:35:05;;;;;;;;;;;;;;;22.81;48.99;95938.81;5061928;28;19947;-77
2023/05/28 09:37:31;;;;;;;;;;;;;;;22.56;50.83;95938.84;5050536;28;19928;-77
2023/05/28 09:40:01;;;;;;;;;;;;;;;22.76;44.39;95941.13;5054940;28;19948;-76
2023/05/28 09:42:33;;;;;;;;;;;;;;;22.97;49.22;95930.88;5050701;28;20015;-76
2023/05/28 09:45:00;;;;;;;;;;;;;;;23.05;43.72;95933.50;5049397;28;19925;-76
2023/05/28 09:47:27;;;;;;;;;;;;;;;22.90;52.68;95933.31;5051831;28;19932;-76
2023/05/28 09:49:53;;;;;;;;;;;;;;;23.07;45.50;95925.41;5062426;28;19955;-76
2023/05/28 09:52:20;;;;;;;;;;;;;;;23.04;48.47;95931.84;5057992;28;19933;-75
2023/05/28 09:54:50;;;;;;;;;;;;;;;23.02;45.58;95925.06;5051832;28;19929;-75
2023/05/28 09:57:18;;;;;;;;;;;;;;;23.09;53.13;95933.97;5043618;28;20027;-76
2023/05/28 09:59:46;;;;;;;;;;;;;;;22.52;53.70;95940.16;5049942;28;19925;-75
2023/05/28 10:02:20;;;;;;;;;;;;;;;22.47;50.41;95939.81;5057145;28;19925;-76
2023/05/28 10:04:48;;;;;;;;;;;;;;;22.47;51.59;95939.81;5051152;28;19928;-75
2023/05/28 10:07:16;;;;;;;;;;;;;;;22.65;45.91;95942.28;5054038;28;19942;-75
2023/05/28 10:09:43;;;;;;;;;;;;;;;22.70;51.61;95937.34;5041051;28;19932;-75
2023/05/28 10:12:10;;;;;;;;;;;;;;;22.86;47.57;95941.75;5053993;28;19924;-75
2023/05/28 10:14:37;;;;;;;;;;;;;;;23.00;46.05;95937.66;5040782;28;20016;-76
2023/05/28 10:17:06;;;;;;;;;;;;;;;23.18;45.54;95946.19;5052175;28;19932;-76
2023/05/28 10:19:32;;;;;;;;;;;;;;;22.74;45.42;95937.84;5043207;28;20380;-75
2023/05/28 10:21:59;;;;;;;;;;;;;;;22.81;45.60;95930.88;5043258;28;20253;-76
2023/05/28 10:24:25;;;;;;;;;;;;;;;23.41;46.73;95928.56;5048487;28;19932;-76
2023/05/28 10:26:53;;;;;;;;;;;;;;;23.51;46.12;95930.16;5044100;28;19972;-75
2023/05/28 10:29:20;;;;;;;;;;;;;;;23.61;51.04;95930.78;5045956;28;19925;-76
2023/05/28 10:31:57;;;;;;;;;;;;;;;23.73;47.62;95934.75;5042363;28;19933;-76
2023/05/28 10:34:29;;;;;;;;;;;;;;;23.52;42.65;95931.84;5061547;28;20018;-75
2023/05/28 10:36:55;;;;;;;;;;;;;;;23.21;45.09;95937.88;5058617;28;19959;-75
2023/05/28 10:39:22;;;;;;;;;;;;;;;23.46;45.01;95933.34;5061904;28;19924;-76
2023/05/28 10:41:50;;;;;;;;;;;;;;;23.35;47.74;95936.34;5043227;28;19926;-75
2023/05/28 10:44:16;;;;;;;;;;;;;;;23.21;45.61;95940.53;5050540;28;19929;-76
2023/05/28 10:46:43;;;;;;;;;;;;;;;23.22;42.73;95934.28;5050979;28;20004;-76
2023/05/28 10:49:11;;;;;;;;;;;;;;;23.02;40.43;95933.00;5062160;28;20019;-75
2023/05/28 10:51:46;;;;;;;;;;;;;;;22.74;42.92;95924.63;5060048;28;19994;-76
2023/05/28 10:54:16;;;;;;;;;;;;;;;22.99;44.11;95935.97;5060149;28;20558;-76
2023/05/28 10:56:57;;;;;;;;;;;;;;;22.75;44.61;95935.00;5055445;28;19963;-76
2023/05/28 10:59:36;;;;;;;;;;;;;;;22.64;43.61;95936.19;5048428;28;19924;-76
2023/05/28 11:02:06;;;;;;;;;;;;;;;22.78;44.42;95932.03;5060699;28;19929;-75
2023/05/28 11:04:35;;;;;;;;;;;;;;;22.85;44.46;95927.75;5061054;28;21195;-76
2023/05/28 11:07:02;;;;;;;;;;;;;;;22.90;43.48;95928.03;5053290;28;19929;-76
2023/05/28 11:09:29;;;;;;;;;;;;;;;23.10;40.28;95922.41;5045508;28;19933;-75
2023/05/28 11:11:58;;;;;;;;;;;;;;;23.00;47.49;95924.44;5053561;28;19932;-76
2023/05/28 11:14:24;;;;;;;;;;;;;;;22.73;46.79;95921.16;5049117;28;20580;-75
2023/05/28 11:16:51;;;;;;;;;;;;;;;22.67;43.87;95924.47;5043583;28;19933;-75
2023/05/28 11:19:17;;;;;;;;;;;;;;;23.04;48.19;95925.75;5054123;28;19929;-75
2023/05/28 11:21:52;;;;;;;;;;;;;;;22.73;42.14;95926.44;5042481;28;20402;-75
2023/05/28 11:24:20;;;;;;;;;;;;;;;22.49;41.39;95913.28;5035543;28;19928;-75
2023/05/28 11:26:46;;;;;;;;;;;;;;;22.91;47.69;95921.78;5039358;28;19948;-75
2023/05/28 11:29:14;;;;;;;;;;;;;;;22.79;47.92;95909.91;5048698;28;19933;-75
2023/05/28 11:31:40;;;;;;;;;;;;;;;23.07;43.98;95915.66;5050429;28;20467;-75
2023/05/28 11:34:07;;;;;;;;;;;;;;;22.92;44.06;95917.38;5064124;28;19925;-75
2023/05/28 11:36:38;;;;;;;;;;;;;;;22.74;40.50;95912.25;5055004;28;19925;-75
2023/05/28 11:39:04;;;;;;;;;;;;;;;22.97;45.40;95915.03;5063760;28;19925;-76
2023/05/28 11:41:32;;;;;;;;;;;;;;;22.89;46.84;95913.19;5056772;28;19932;-76
2023/05/28 11:43:58;;;;;;;;;;;;;;;22.91;44.97;95918.31;5044370;28;19933;-74
2023/05/28 11:46:25;;;;;;;;;;;;;;;22.86;43.77;95920.63;5045930;28;19929;-73
2023/05/28 11:48:51;;;;;;;;;;;;;;;22.73;41.95;95915.03;5057873;28;19925;-73
2023/05/28 11:51:19;;;;;;;;;;;;;;;22.65;47.33;95915.88;5044433;28;20019;-74
2023/05/28 11:53:46;;;;;;;;;;;;;;;22.86;44.33;95913.53;5048544;28;19939;-73
2023/05/28 11:56:13;;;;;;;;;;;;;;;22.89;49.42;95917.66;5051247;28;19924;-73
2023/05/28 11:58:45;;;;;;;;;;;;;;;22.87;43.63;95917.00;5044516;28;19933;-74
2023/05/28 12:01:13;;;;;;;;;;;;;;;22.96;45.57;95912.56;5058000;28;19929;-74
2023/05/28 12:03:40;;;;;;;;;;;;;;;22.98;45.84;95911.38;5049561;28;19970;-74
2023/05/28 12:06:06;;;;;;;;;;;;;;;23.05;45.39;95912.34;5063784;28;19933;-73
2023/05/28 12:08:32;;;;;;;;;;;;;;;23.06;45.85;95913.16;5053619;28;19945;-74
2023/05/28 12:11:02;;;;;;;;;;;;;;;23.03;47.45;95910.91;5036842;28;20391;-74
2023/05/28 12:13:33;;;;;;;;;;;;;;;22.99;51.92;95897.22;5049548;28;20451;-74
2023/05/28 12:16:07;;;;;;;;;;;;;;;23.16;45.23;95904.06;5053993;28;20358;-73
2023/05/28 12:18:33;;;;;;;;;;;;;;;22.79;44.64;95903.81;5062011;28;20422;-74
2023/05/28 12:21:00;;;;;;;;;;;;;;;22.98;47.41;95894.72;5046695;28;19929;-74
2023/05/28 12:23:26;;;;;;;;;;;;;;;23.02;52.77;95896.84;5047163;28;19936;-73
2023/05/28 12:25:53;;;;;;;;;;;;;;;23.15;48.31;95902.41;5040681;28;19956;-72
2023/05/28 12:28:20;;;;;;;;;;;;;;;22.75;45.31;95905.16;5038502;28;20307;-73
2023/05/28 12:30:50;;;;;;;;;;;;;;;22.83;52.16;95905.13;5048857;28;20441;-73
2023/05/28 12:33:17;;;;;;;;;;;;;;;22.79;49.74;95896.72;5052793;28;19930;-73
2023/05/28 12:35:44;;;;;;;;;;;;;;;22.63;44.67;95894.13;5050455;28;19925;-76
2023/05/28 12:38:10;;;;;;;;;;;;;;;22.51;44.25;95898.06;5046312;28;19929;-76
2023/05/28 12:40:36;;;;;;;;;;;;;;;22.64;47.39;95893.94;5064567;28;19963;-76
2023/05/28 12:43:02;;;;;;;;;;;;;;;22.55;47.70;95888.88;5050058;28;19925;-76